Impacts TAF Board INFO
FOR SITUATIONAL AWARENESS. NOT TO BE USED FOR FLIGHT PLANNING PURPOSES.
IDs:

KTPA - Tampa Intl Arpt, FL, US

Issued at 1139 UTC 19 Jun 2018
Updated at 1238 UTC 19 Jun 2018
Potential Impact None Slight Moderate High
Time1153Z 19/13Z 19/14Z 19/15Z 19/16Z 19/17Z 19/18Z 19/19Z 19/20Z 19/21Z 19/22Z 19/23Z 20/00Z 20/01Z>>
Type OBS PRVL PRVL PRVL PRVL PRVL PRVL PRVL PRVL PRVL PRVL PRVL PRVL PRVL
VIS 10 >6 >6 >6 >6 >6 >6 >6 >6 >6 >6 >6 >6 >6
CIG -- -- -- -- -- -- 40 40 40 40 50 50 -- --
Cover FEW SCT SCT SCT SCT SCT BKN BKN BKN BKN BKN BKN SCT SCT
FltCat VFR VFR VFR VFR VFR VFR VFR VFR VFR VFR VFR VFR VFR VFR
WX -- -- -- -- -- -- VCSH VCSH VCSH VCSH -- -- -- --
WDir 120 140 140 220 220 220 250 250 250 250 280 280 310 310
WSpd 3 4 4 6 6 6 7 7 7 7 8 8 5 5
WGst -- -- -- -- -- -- -- -- -- -- -- -- -- --

Raw TAF
KTPA 191139Z 1912/2018 14004KT P6SM SCT250
  FM191500 22006KT P6SM SCT035 SCT250
  FM191800 25007KT P6SM VCSH BKN040
  FM192200 28008KT P6SM BKN050
  FM200000 31005KT P6SM SCT050 SCT250
  FM200300 VRB03KT P6SM SCT250
  FM201500 23006KT P6SM SCT035 SCT250


Raw METAR
KTPA 191153Z 12003KT 10SM FEW018 FEW280 27/22 A3006 RMK AO2 SLP179 70007 T02670222 10272 20256 51011
KTPA 191053Z 12004KT 10SM FEW030 FEW150 SCT250 26/22 A3006 RMK AO2 SLP177 CB DSNT W-NW T02610217
KTPA 190953Z 12004KT 10SM FEW038 FEW190 26/22 A3004 RMK AO2 SLP172 TCU DSNT W-NW T02610217

METAR Board
Radar Display
Forecast Discussion

FOR SITUATIONAL AWARENESS. NOT TO BE USED FOR FLIGHT PLANNING PURPOSES.